createdAt,value
2022-11-24T00:02:09.397Z,15.86
2022-11-24T00:04:39.149Z,15.88
2022-11-24T00:07:08.633Z,15.86
2022-11-24T00:09:38.176Z,15.86
2022-11-24T00:12:07.679Z,15.83
2022-11-24T00:14:37.224Z,15.81
2022-11-24T00:17:06.633Z,15.81
2022-11-24T00:19:36.200Z,15.82
2022-11-24T00:22:05.547Z,15.81
2022-11-24T00:24:35.569Z,15.82
2022-11-24T00:27:05.391Z,15.78
2022-11-24T00:29:34.879Z,15.75
2022-11-24T00:32:07.226Z,15.78
2022-11-24T00:34:36.730Z,15.79
2022-11-24T00:37:06.275Z,15.75
2022-11-24T00:39:35.619Z,15.68
2022-11-24T00:42:05.173Z,15.68
2022-11-24T00:44:34.852Z,15.62
2022-11-24T00:47:05.146Z,15.63
2022-11-24T00:49:34.684Z,15.57
2022-11-24T00:52:04.178Z,15.57
2022-11-24T00:54:34.566Z,15.54
2022-11-24T00:57:04.415Z,15.49
2022-11-24T00:59:33.769Z,15.35
2022-11-24T01:02:04.795Z,15.32
2022-11-24T01:04:36.512Z,15.24
2022-11-24T01:07:08.325Z,15.21
2022-11-24T01:09:39.476Z,15.14
2022-11-24T01:12:10.314Z,15.12
2022-11-24T01:14:41.436Z,15.07
2022-11-24T01:17:11.663Z,15.05
2022-11-24T01:19:42.521Z,14.98
2022-11-24T01:22:14.713Z,15.01
2022-11-24T01:24:45.550Z,15.06
2022-11-24T01:27:15.969Z,15.09
2022-11-24T01:29:46.925Z,15.08
2022-11-24T01:32:17.640Z,15.08
2022-11-24T01:34:48.314Z,15.06
2022-11-24T01:37:19.657Z,15.15
2022-11-24T01:39:50.527Z,15.13
2022-11-24T01:42:21.551Z,15.16
2022-11-24T01:45:30.427Z,15.30
2022-11-24T01:48:03.286Z,15.21
2022-11-24T01:50:36.405Z,15.16
2022-11-24T01:53:07.581Z,15.16
2022-11-24T01:55:41.267Z,15.26
2022-11-24T01:58:17.661Z,15.29
2022-11-24T02:00:48.793Z,15.22
2022-11-24T02:03:24.082Z,15.30
2022-11-24T02:06:03.354Z,15.33
2022-11-24T02:08:43.536Z,15.41
2022-11-24T02:11:14.282Z,15.34
2022-11-24T02:13:46.002Z,15.37
2022-11-24T02:16:16.525Z,15.44
2022-11-24T02:18:47.045Z,15.44
2022-11-24T02:21:18.655Z,15.54
2022-11-24T02:24:07.092Z,15.53
2022-11-24T02:26:50.830Z,15.71
2022-11-24T02:29:22.279Z,15.70
2022-11-24T02:32:00.842Z,15.82
2022-11-24T02:34:31.487Z,15.76
2022-11-24T02:37:02.127Z,15.83
2022-11-24T02:39:32.592Z,15.86
2022-11-24T02:42:08.349Z,16.02
2022-11-24T02:44:45.608Z,16.09
2022-11-24T02:47:16.289Z,16.11
2022-11-24T02:49:46.447Z,16.14
2022-11-24T02:52:17.648Z,16.25
2022-11-24T02:54:47.808Z,16.34
2022-11-24T02:57:18.541Z,16.41
2022-11-24T02:59:48.994Z,16.46
2022-11-24T03:02:19.416Z,16.59
2022-11-24T03:04:50.137Z,16.67
2022-11-24T03:07:20.473Z,16.75
2022-11-24T03:09:51.100Z,16.84
2022-11-24T03:12:22.135Z,16.95
2022-11-24T03:14:53.101Z,17.09
2022-11-24T03:17:23.426Z,17.19
2022-11-24T03:19:53.640Z,17.26
2022-11-24T03:22:23.938Z,17.37
2022-11-24T03:24:55.097Z,17.50
2022-11-24T03:27:25.608Z,17.62
2022-11-24T03:29:56.115Z,17.71
2022-11-24T03:32:26.873Z,17.83
2022-11-24T03:34:57.828Z,17.98
2022-11-24T03:37:28.273Z,18.04
2022-11-24T03:39:58.620Z,18.17
2022-11-24T03:42:28.698Z,18.26
2022-11-24T03:45:04.265Z,18.33
2022-11-24T03:47:46.502Z,18.43
2022-11-24T03:50:16.191Z,18.56
2022-11-24T03:52:45.506Z,18.67
2022-11-24T03:55:15.046Z,18.77
2022-11-24T03:57:44.707Z,18.81
2022-11-24T04:00:14.573Z,18.91
2022-11-24T04:02:44.340Z,18.97
2022-11-24T04:05:13.937Z,19.05
2022-11-24T04:07:43.761Z,19.11
2022-11-24T04:10:13.543Z,19.19
2022-11-24T04:12:45.967Z,19.28
2022-11-24T04:15:20.738Z,19.40
2022-11-24T04:17:51.624Z,19.43
2022-11-24T04:20:21.598Z,19.43
2022-11-24T04:22:53.248Z,19.57
2022-11-24T04:25:22.779Z,19.61
2022-11-24T04:27:54.349Z,19.83
2022-11-24T04:30:27.361Z,19.92
2022-11-24T04:32:58.136Z,20.02
2022-11-24T04:35:27.648Z,20.10
2022-11-24T04:37:57.080Z,20.18
2022-11-24T04:40:26.789Z,20.28
2022-11-24T04:42:57.287Z,20.40
2022-11-24T04:45:26.951Z,20.47
2022-11-24T04:47:56.454Z,20.62
2022-11-24T04:50:26.134Z,20.74
2022-11-24T04:52:55.485Z,20.83
2022-11-24T04:55:25.068Z,20.89
2022-11-24T04:57:54.418Z,21.02
2022-11-24T05:00:24.096Z,21.09
2022-11-24T05:02:53.868Z,21.28
2022-11-24T05:05:24.427Z,21.35
2022-11-24T05:07:54.279Z,21.42
2022-11-24T05:10:38.760Z,21.49
2022-11-24T05:13:17.245Z,21.73
2022-11-24T05:15:46.915Z,21.70
2022-11-24T05:18:17.870Z,21.81
2022-11-24T05:20:47.374Z,21.81
2022-11-24T05:23:18.231Z,21.93
2022-11-24T05:25:48.111Z,21.95
2022-11-24T05:28:18.747Z,22.05
2022-11-24T05:30:48.254Z,22.10
2022-11-24T05:33:24.154Z,22.14
2022-11-24T05:35:54.069Z,22.18
2022-11-24T05:38:24.790Z,22.27
2022-11-24T05:40:54.521Z,22.36
2022-11-24T05:43:23.964Z,22.49
2022-11-24T05:45:53.284Z,22.56
2022-11-24T05:48:23.051Z,22.52
2022-11-24T05:50:59.719Z,22.58
2022-11-24T05:53:29.710Z,22.64
2022-11-24T05:56:01.168Z,22.82
2022-11-24T05:58:30.799Z,22.86
2022-11-24T06:01:02.531Z,22.87
2022-11-24T06:03:32.543Z,22.97
2022-11-24T06:06:02.543Z,23.08
2022-11-24T06:08:32.855Z,22.99
2022-11-24T06:11:23.700Z,23.12
2022-11-24T06:13:53.299Z,23.17
2022-11-24T06:16:23.465Z,23.25
2022-11-24T06:18:53.983Z,23.42
2022-11-24T06:21:23.843Z,23.49
2022-11-24T06:23:53.352Z,23.44
2022-11-24T06:26:23.024Z,23.50
2022-11-24T06:28:52.521Z,23.51
2022-11-24T06:31:22.890Z,23.48
2022-11-24T06:33:52.728Z,23.48
2022-11-24T06:36:23.536Z,23.64
2022-11-24T06:38:53.461Z,23.64
2022-11-24T06:41:24.080Z,23.63
2022-11-24T06:43:53.762Z,23.71
2022-11-24T06:46:23.713Z,23.72
2022-11-24T06:48:54.316Z,23.83
2022-11-24T06:51:24.180Z,23.83
2022-11-24T06:53:53.940Z,23.99
2022-11-24T06:56:24.252Z,24.02
2022-11-24T06:58:55.573Z,24.07
2022-11-24T07:01:27.961Z,24.18
2022-11-24T07:03:59.510Z,24.16
2022-11-24T07:06:29.530Z,24.14
2022-11-24T07:08:59.044Z,24.20
2022-11-24T07:11:28.813Z,24.21
2022-11-24T07:14:00.461Z,24.24
2022-11-24T07:16:30.897Z,24.27
2022-11-24T07:19:01.617Z,24.33
2022-11-24T07:21:32.109Z,24.40
2022-11-24T07:24:01.676Z,24.46
2022-11-24T07:26:31.029Z,24.46
2022-11-24T07:29:00.665Z,24.51
2022-11-24T07:31:30.096Z,24.47
2022-11-24T07:34:01.844Z,24.53
2022-11-24T07:36:31.557Z,24.65
2022-11-24T07:39:01.440Z,24.64
2022-11-24T07:41:31.245Z,24.72
2022-11-24T07:44:00.955Z,24.72
2022-11-24T07:46:30.597Z,24.68
2022-11-24T07:49:00.384Z,24.82
2022-11-24T07:51:29.958Z,24.79
2022-11-24T07:54:03.801Z,24.84
2022-11-24T07:56:33.686Z,24.97
2022-11-24T07:59:03.984Z,25.10
2022-11-24T08:01:37.268Z,25.10
2022-11-24T08:04:09.627Z,25.18
2022-11-24T08:06:43.295Z,25.32
2022-11-24T08:09:16.681Z,25.34
2022-11-24T08:11:46.601Z,25.42
2022-11-24T08:14:16.178Z,25.46
2022-11-24T08:16:46.020Z,25.42
2022-11-24T08:19:15.733Z,25.62
2022-11-24T08:21:45.380Z,25.52
2022-11-24T08:24:16.654Z,25.61
2022-11-24T08:26:46.544Z,25.60
2022-11-24T08:29:16.151Z,25.60
2022-11-24T08:31:45.972Z,25.59
2022-11-24T08:34:15.728Z,25.57
2022-11-24T08:36:45.260Z,25.62
2022-11-24T08:39:15.012Z,25.60
2022-11-24T08:41:44.697Z,25.67
2022-11-24T08:44:17.235Z,25.76
2022-11-24T08:46:47.675Z,25.74
2022-11-24T08:49:19.996Z,25.76
2022-11-24T08:51:51.417Z,25.73
2022-11-24T08:54:22.595Z,25.80
2022-11-24T08:56:52.425Z,25.88
2022-11-24T08:59:21.844Z,25.86
2022-11-24T09:01:51.506Z,25.98
2022-11-24T09:04:21.209Z,25.86
2022-11-24T09:06:51.255Z,26.01
2022-11-24T09:09:21.165Z,26.07
2022-11-24T09:11:50.973Z,26.09
2022-11-24T09:14:20.381Z,26.02
2022-11-24T09:16:50.230Z,26.10
2022-11-24T09:19:19.852Z,26.01
2022-11-24T09:21:50.014Z,26.11
2022-11-24T09:24:19.742Z,26.07
2022-11-24T09:26:49.359Z,26.13
2022-11-24T09:30:13.832Z,26.26
2022-11-24T09:33:01.575Z,26.01
2022-11-24T09:35:31.175Z,26.05
2022-11-24T09:38:00.028Z,25.99
2022-11-24T09:40:29.088Z,26.05
2022-11-24T09:43:08.989Z,26.06
2022-11-24T09:46:04.944Z,26.13
2022-11-24T09:48:45.549Z,26.13
2022-11-24T09:51:17.018Z,26.03
2022-11-24T09:53:55.366Z,26.14
2022-11-24T09:56:30.969Z,26.14
2022-11-24T09:59:25.830Z,26.05
2022-11-24T10:01:56.811Z,25.91
2022-11-24T10:04:35.580Z,25.99
2022-11-24T10:07:39.020Z,26.01
2022-11-24T10:10:25.102Z,25.85
2022-11-24T10:13:21.799Z,25.90
2022-11-24T10:16:16.189Z,25.92
2022-11-24T10:18:45.687Z,25.72
2022-11-24T10:21:37.914Z,25.77
2022-11-24T10:24:29.131Z,25.75
2022-11-24T10:27:16.747Z,25.68
2022-11-24T10:29:50.494Z,25.61
2022-11-24T10:32:32.800Z,25.60
2022-11-24T10:35:16.136Z,25.61
2022-11-24T10:37:51.704Z,25.60
2022-11-24T10:43:24.345Z,25.43
2022-11-24T10:45:53.478Z,25.42
2022-11-24T10:48:27.773Z,25.50
2022-11-24T10:51:17.091Z,25.39
2022-11-24T10:53:47.571Z,25.37
2022-11-24T10:56:16.674Z,25.27
2022-11-24T10:58:45.902Z,25.28
2022-11-24T11:01:15.084Z,25.24
2022-11-24T11:03:51.344Z,25.27
2022-11-24T11:06:25.981Z,25.25
2022-11-24T11:09:10.330Z,25.23
2022-11-24T11:11:41.676Z,25.02
2022-11-24T11:14:16.936Z,25.15
2022-11-24T11:16:58.841Z,25.07
2022-11-24T11:19:49.809Z,25.00
2022-11-24T11:22:32.727Z,24.96
2022-11-24T11:25:21.418Z,24.89
2022-11-24T11:27:51.201Z,24.64
2022-11-24T11:36:17.259Z,24.41
2022-11-24T11:38:48.498Z,24.24
2022-11-24T11:41:38.089Z,24.26
2022-11-24T11:44:27.800Z,24.20
2022-11-24T11:47:00.821Z,24.00
2022-11-24T11:49:29.952Z,23.82
2022-11-24T11:52:30.331Z,23.87
2022-11-24T11:55:36.808Z,23.74
2022-11-24T11:58:44.537Z,23.60
2022-11-24T12:01:32.135Z,23.26
2022-11-24T12:04:49.594Z,23.33
2022-11-24T12:07:21.362Z,23.13
2022-11-24T12:10:17.990Z,23.06
2022-11-24T12:13:08.137Z,22.88
2022-11-24T12:15:56.519Z,22.78
2022-11-24T12:18:59.386Z,22.57
2022-11-24T12:22:01.106Z,22.49
2022-11-24T12:24:46.673Z,22.39
2022-11-24T12:27:29.557Z,22.28
2022-11-24T12:30:07.281Z,22.27
2022-11-24T12:32:52.704Z,22.06
2022-11-24T12:35:31.397Z,21.93
2022-11-24T12:38:15.832Z,21.92
2022-11-24T12:44:52.196Z,21.71
2022-11-24T12:47:32.720Z,21.59
2022-11-24T12:50:19.321Z,21.47
2022-11-24T12:53:12.991Z,21.42
2022-11-24T12:55:43.655Z,21.20
2022-11-24T12:58:27.641Z,21.14
2022-11-24T13:01:16.905Z,21.10
2022-11-24T13:04:04.855Z,21.02
2022-11-24T13:06:51.474Z,20.94
2022-11-24T13:09:21.528Z,20.82
2022-11-24T13:12:14.705Z,20.84
2022-11-24T13:14:47.822Z,20.66
2022-11-24T13:17:47.558Z,20.75
2022-11-24T13:20:22.331Z,20.56
2022-11-24T13:23:00.319Z,20.64
2022-11-24T13:25:37.985Z,20.59
2022-11-24T13:28:07.767Z,20.52
2022-11-24T13:30:37.390Z,20.44
2022-11-24T13:33:16.429Z,20.51
2022-11-24T13:36:05.240Z,20.51
2022-11-24T13:38:54.555Z,20.50
2022-11-24T13:41:38.340Z,20.44
2022-11-24T13:44:16.770Z,20.40
2022-11-24T13:47:23.911Z,20.41
2022-11-24T13:49:53.059Z,20.25
2022-11-24T13:52:43.314Z,20.26
2022-11-24T13:55:16.546Z,20.15
2022-11-24T13:58:01.413Z,20.13
2022-11-24T14:00:36.862Z,20.02
2022-11-24T14:03:29.384Z,19.96
2022-11-24T14:06:00.187Z,19.86
2022-11-24T14:08:34.692Z,19.94
2022-11-24T14:11:05.008Z,19.91
2022-11-24T14:13:35.077Z,19.88
2022-11-24T14:16:22.232Z,19.96
2022-11-24T14:18:53.442Z,19.85
2022-11-24T14:21:54.858Z,19.77
2022-11-24T14:24:39.790Z,19.87
2022-11-24T14:27:19.182Z,19.83
2022-11-24T14:30:00.483Z,19.85
2022-11-24T14:32:30.998Z,19.75
2022-11-24T14:35:00.862Z,19.66
2022-11-24T14:37:30.118Z,19.69
2022-11-24T14:39:59.196Z,19.64
2022-11-24T14:42:29.315Z,19.64
2022-11-24T14:45:05.552Z,19.81
2022-11-24T14:47:46.927Z,19.87
2022-11-24T14:50:20.358Z,19.87
2022-11-24T14:52:58.061Z,19.88
2022-11-24T14:55:32.768Z,19.79
2022-11-24T14:58:03.578Z,19.59
2022-11-24T15:00:34.490Z,19.65
2022-11-24T15:03:03.715Z,19.60
2022-11-24T15:06:00.468Z,19.75
2022-11-24T15:08:38.698Z,19.66
2022-11-24T15:11:09.030Z,19.64
2022-11-24T15:13:41.791Z,19.66
2022-11-24T15:16:19.212Z,19.71
2022-11-24T15:18:50.635Z,19.59
2022-11-24T15:21:35.740Z,19.66
2022-11-24T15:24:18.141Z,19.66
2022-11-24T15:26:48.089Z,19.55
2022-11-24T15:29:17.322Z,19.55
2022-11-24T15:31:51.005Z,19.53
2022-11-24T15:34:21.682Z,19.52
2022-11-24T15:36:50.953Z,19.50
2022-11-24T15:39:20.027Z,19.44
2022-11-24T15:41:49.091Z,19.40
2022-11-24T15:44:18.204Z,19.34
2022-11-24T15:46:47.791Z,19.27
2022-11-24T15:49:16.869Z,19.19
2022-11-24T15:51:48.022Z,19.15
2022-11-24T15:54:20.270Z,19.13
2022-11-24T15:56:49.595Z,19.02
2022-11-24T15:59:20.797Z,18.99
2022-11-24T16:01:51.728Z,18.95
2022-11-24T16:04:20.802Z,18.93
2022-11-24T16:06:51.273Z,18.90
2022-11-24T16:09:22.320Z,18.90
2022-11-24T16:11:51.509Z,18.89
2022-11-24T16:14:21.018Z,18.84
2022-11-24T16:16:50.244Z,18.83
2022-11-24T16:19:19.494Z,18.78
2022-11-24T16:21:52.297Z,18.86
2022-11-24T16:24:21.621Z,18.78
2022-11-24T16:26:53.084Z,18.79
2022-11-24T16:29:24.928Z,18.76
2022-11-24T16:31:57.521Z,18.79
2022-11-24T16:34:33.463Z,18.82
2022-11-24T16:37:02.706Z,18.67
2022-11-24T16:39:32.042Z,18.69
2022-11-24T16:42:02.838Z,18.62
2022-11-24T16:44:32.391Z,18.62
2022-11-24T16:47:03.355Z,18.60
2022-11-24T16:49:33.935Z,18.58
2022-11-24T16:52:03.379Z,18.50
2022-11-24T16:54:33.105Z,18.50
2022-11-24T16:57:02.690Z,18.51
2022-11-24T16:59:32.297Z,18.52
2022-11-24T17:02:01.652Z,18.51
2022-11-24T17:04:30.686Z,18.44
2022-11-24T17:06:59.837Z,18.44
2022-11-24T17:09:28.747Z,18.43
2022-11-24T17:11:57.890Z,18.40
2022-11-24T17:14:26.928Z,18.38
2022-11-24T17:16:57.082Z,18.36
2022-11-24T17:19:26.929Z,18.30
2022-11-24T17:21:55.977Z,18.31
2022-11-24T17:24:25.493Z,18.09
2022-11-24T17:26:55.895Z,18.15
2022-11-24T17:29:25.767Z,18.14
2022-11-24T17:31:54.749Z,18.14
2022-11-24T17:34:25.256Z,18.14
2022-11-24T17:36:55.383Z,18.11
2022-11-24T17:39:28.812Z,18.09
2022-11-24T17:41:58.712Z,18.08
2022-11-24T17:44:33.620Z,18.05
2022-11-24T17:47:08.003Z,18.07
2022-11-24T17:49:37.789Z,18.07
2022-11-24T17:52:08.344Z,18.03
2022-11-24T17:54:46.442Z,18.02
2022-11-24T17:57:18.862Z,17.99
2022-11-24T17:59:48.050Z,17.96
2022-11-24T18:02:17.333Z,17.92
2022-11-24T18:04:46.633Z,17.92
2022-11-24T18:07:15.597Z,17.90
2022-11-24T18:09:45.385Z,17.89
2022-11-24T18:12:14.775Z,17.87
2022-11-24T18:14:43.883Z,17.80
2022-11-24T18:17:13.300Z,17.75
2022-11-24T18:19:42.194Z,17.74
2022-11-24T18:22:11.343Z,17.71
2022-11-24T18:24:40.606Z,17.72
2022-11-24T18:27:10.077Z,17.65
2022-11-24T18:29:39.139Z,17.60
2022-11-24T18:32:08.242Z,17.65
2022-11-24T18:34:38.386Z,17.66
2022-11-24T18:37:08.970Z,17.65
2022-11-24T18:39:38.182Z,17.65
2022-11-24T18:42:07.190Z,17.68
2022-11-24T18:44:38.120Z,17.68
2022-11-24T18:47:07.515Z,17.66
2022-11-24T18:49:36.656Z,17.67
2022-11-24T18:52:05.971Z,17.69
2022-11-24T18:54:35.310Z,17.69
2022-11-24T18:57:04.853Z,17.65
2022-11-24T18:59:34.250Z,17.66
2022-11-24T19:02:03.206Z,17.65
2022-11-24T19:04:33.333Z,17.60
2022-11-24T19:07:03.672Z,17.57
2022-11-24T19:09:33.377Z,17.57
2022-11-24T19:12:10.554Z,17.54
2022-11-24T19:14:40.761Z,17.53
2022-11-24T19:17:10.996Z,17.59
2022-11-24T19:19:40.718Z,17.56
2022-11-24T19:22:11.761Z,17.58
2022-11-24T19:24:43.664Z,17.56
2022-11-24T19:27:16.501Z,17.51
2022-11-24T19:29:47.670Z,17.46
2022-11-24T19:32:18.150Z,17.45
2022-11-24T19:34:51.790Z,17.44
2022-11-24T19:37:24.436Z,17.42
2022-11-24T19:39:55.175Z,17.40
2022-11-24T19:42:24.708Z,17.38
2022-11-24T19:44:56.669Z,17.37
2022-11-24T19:47:30.436Z,17.37
2022-11-24T19:50:10.767Z,17.39
2022-11-24T19:52:39.903Z,17.33
2022-11-24T19:55:09.431Z,17.33
2022-11-24T19:57:38.437Z,17.34
2022-11-24T20:00:08.621Z,17.31
2022-11-24T20:02:37.928Z,17.24
2022-11-24T20:05:08.082Z,17.24
2022-11-24T20:07:45.221Z,17.20
2022-11-24T20:10:16.328Z,17.19
2022-11-24T20:12:49.457Z,17.23
2022-11-24T20:15:20.303Z,17.18
2022-11-24T20:17:49.503Z,17.10
2022-11-24T20:20:21.302Z,17.11
2022-11-24T20:22:52.183Z,17.12
2022-11-24T20:25:21.644Z,17.05
2022-11-24T20:27:55.447Z,17.10
2022-11-24T20:30:27.927Z,17.09
2022-11-24T20:32:59.854Z,17.04
2022-11-24T20:35:30.630Z,17.00
2022-11-24T20:38:02.089Z,17.03
2022-11-24T20:40:33.900Z,16.90
2022-11-24T20:43:03.517Z,16.89
2022-11-24T20:45:32.523Z,16.86
2022-11-24T20:48:04.301Z,16.86
2022-11-24T20:50:34.535Z,16.86
2022-11-24T20:53:03.803Z,16.86
2022-11-24T20:55:36.261Z,16.86
2022-11-24T20:58:24.611Z,16.97
2022-11-24T21:00:54.226Z,16.81
2022-11-24T21:03:23.492Z,16.84
2022-11-24T21:05:56.804Z,16.93
2022-11-24T21:08:26.007Z,16.84
2022-11-24T21:10:59.370Z,16.88
2022-11-24T21:13:29.818Z,16.84
2022-11-24T21:15:59.022Z,16.79
2022-11-24T21:18:28.287Z,16.74
2022-11-24T21:21:00.782Z,16.75
2022-11-24T21:23:30.158Z,16.67
2022-11-24T21:26:10.314Z,16.76
2022-11-24T21:28:45.197Z,16.67
2022-11-24T21:31:16.791Z,16.72
2022-11-24T21:33:53.384Z,16.74
2022-11-24T21:36:25.566Z,16.74
2022-11-24T21:38:56.993Z,16.68
2022-11-24T21:41:28.632Z,16.71
2022-11-24T21:43:57.975Z,16.67
2022-11-24T21:46:27.118Z,16.60
2022-11-24T21:48:56.230Z,16.55
2022-11-24T21:51:25.611Z,16.57
2022-11-24T21:53:55.258Z,16.65
2022-11-24T21:56:25.459Z,16.65
2022-11-24T21:58:56.967Z,16.67
2022-11-24T22:01:29.206Z,16.67
2022-11-24T22:03:58.376Z,16.59
2022-11-24T22:06:27.498Z,16.58
2022-11-24T22:08:56.788Z,16.41
2022-11-24T22:11:27.239Z,16.43
2022-11-24T22:13:56.301Z,16.39
2022-11-24T22:16:26.852Z,16.32
2022-11-24T22:18:56.096Z,16.21
2022-11-24T22:21:31.589Z,16.13
2022-11-24T22:24:04.095Z,16.27
2022-11-24T22:26:32.896Z,16.44
2022-11-24T22:29:02.202Z,16.30
2022-11-24T22:31:33.868Z,16.36
2022-11-24T22:34:02.988Z,16.35
2022-11-24T22:36:32.438Z,16.32
2022-11-24T22:39:04.278Z,16.33
2022-11-24T22:41:36.239Z,16.34
2022-11-24T22:44:06.245Z,16.34
2022-11-24T22:46:35.284Z,16.24
2022-11-24T22:49:04.530Z,16.16
2022-11-24T22:51:36.014Z,16.22
2022-11-24T22:54:06.979Z,16.23
2022-11-24T22:56:36.159Z,16.15
2022-11-24T22:59:05.587Z,16.11
2022-11-24T23:01:35.403Z,16.08
2022-11-24T23:04:04.875Z,16.09
2022-11-24T23:06:35.029Z,16.05
2022-11-24T23:09:06.255Z,16.08
2022-11-24T23:11:41.383Z,16.09
2022-11-24T23:14:19.187Z,16.15
2022-11-24T23:16:48.549Z,16.04
2022-11-24T23:19:17.791Z,16.01
2022-11-24T23:21:46.854Z,15.98
2022-11-24T23:24:15.855Z,16.00
2022-11-24T23:26:45.083Z,15.97
2022-11-24T23:29:14.402Z,16.01
2022-11-24T23:31:43.683Z,16.04
2022-11-24T23:34:12.855Z,16.05
2022-11-24T23:36:42.621Z,16.09
2022-11-24T23:39:15.379Z,16.12
2022-11-24T23:41:44.519Z,16.03
2022-11-24T23:44:13.564Z,16.00
2022-11-24T23:46:42.622Z,16.04
2022-11-24T23:49:12.071Z,16.02
2022-11-24T23:51:43.110Z,15.97
2022-11-24T23:54:12.571Z,15.99
2022-11-24T23:56:41.684Z,15.99
2022-11-24T23:59:13.036Z,16.06
